sensor_id;sensor_type;location;lat;lon;timestamp;pressure;altitude;pressure_sealevel;temperature;humidity
82728;BME280;72459;50.110;8.750;2024-01-15T00:01:26;99541.00;;;-2.16;75.91
82728;BME280;72459;50.110;8.750;2024-01-15T00:03:51;99537.31;;;-2.19;75.91
82728;BME280;72459;50.110;8.750;2024-01-15T00:06:16;99536.41;;;-2.20;76.14
82728;BME280;72459;50.110;8.750;2024-01-15T00:08:42;99541.44;;;-2.21;76.54
82728;BME280;72459;50.110;8.750;2024-01-15T00:11:07;99535.97;;;-2.14;75.34
82728;BME280;72459;50.110;8.750;2024-01-15T00:13:32;99534.63;;;-2.21;75.90
82728;BME280;72459;50.110;8.750;2024-01-15T00:15:57;99531.38;;;-2.18;76.40
82728;BME280;72459;50.110;8.750;2024-01-15T00:18:23;99534.72;;;-2.19;76.41
82728;BME280;72459;50.110;8.750;2024-01-15T00:20:48;99525.09;;;-2.22;75.93
82728;BME280;72459;50.110;8.750;2024-01-15T00:23:13;99518.50;;;-2.18;76.48
82728;BME280;72459;50.110;8.750;2024-01-15T00:25:39;99522.44;;;-2.24;76.59
82728;BME280;72459;50.110;8.750;2024-01-15T00:28:04;99517.28;;;-2.24;76.62
82728;BME280;72459;50.110;8.750;2024-01-15T00:30:30;99518.28;;;-2.21;77.37
82728;BME280;72459;50.110;8.750;2024-01-15T00:32:55;99524.31;;;-2.21;75.92
82728;BME280;72459;50.110;8.750;2024-01-15T00:35:22;99522.66;;;-2.20;76.08
82728;BME280;72459;50.110;8.750;2024-01-15T00:37:47;99503.19;;;-2.29;77.18
82728;BME280;72459;50.110;8.750;2024-01-15T00:40:13;99515.94;;;-2.18;76.04
82728;BME280;72459;50.110;8.750;2024-01-15T00:42:38;99519.72;;;-2.13;76.87
82728;BME280;72459;50.110;8.750;2024-01-15T00:45:04;99518.94;;;-2.12;76.72
82728;BME280;72459;50.110;8.750;2024-01-15T00:47:30;99514.38;;;-2.16;76.97
82728;BME280;72459;50.110;8.750;2024-01-15T00:49:55;99507.44;;;-2.17;75.97
82728;BME280;72459;50.110;8.750;2024-01-15T00:52:21;99509.00;;;-2.19;77.14
82728;BME280;72459;50.110;8.750;2024-01-15T00:54:46;99503.84;;;-2.19;77.11
82728;BME280;72459;50.110;8.750;2024-01-15T00:57:12;99501.84;;;-2.24;77.15
82728;BME280;72459;50.110;8.750;2024-01-15T00:59:37;99504.75;;;-2.19;77.87
82728;BME280;72459;50.110;8.750;2024-01-15T01:02:03;99496.00;;;-2.09;76.46
82728;BME280;72459;50.110;8.750;2024-01-15T01:04:28;99485.06;;;-2.18;77.22
82728;BME280;72459;50.110;8.750;2024-01-15T01:06:53;99492.19;;;-2.14;76.81
82728;BME280;72459;50.110;8.750;2024-01-15T01:09:19;99489.75;;;-2.13;77.21
82728;BME280;72459;50.110;8.750;2024-01-15T01:11:45;99486.38;;;-2.12;77.35
82728;BME280;72459;50.110;8.750;2024-01-15T01:14:11;99493.09;;;-2.14;77.31
82728;BME280;72459;50.110;8.750;2024-01-15T01:16:36;99491.97;;;-2.06;76.66
82728;BME280;72459;50.110;8.750;2024-01-15T01:19:05;99494.66;;;-2.04;77.29
82728;BME280;72459;50.110;8.750;2024-01-15T01:21:31;99486.94;;;-2.16;77.72
82728;BME280;72459;50.110;8.750;2024-01-15T01:23:56;99489.75;;;-2.13;76.17
82728;BME280;72459;50.110;8.750;2024-01-15T01:26:22;99494.09;;;-2.00;75.59
82728;BME280;72459;50.110;8.750;2024-01-15T01:28:47;99493.06;;;-2.02;76.72
82728;BME280;72459;50.110;8.750;2024-01-15T01:31:12;99495.88;;;-1.99;76.41
82728;BME280;72459;50.110;8.750;2024-01-15T01:33:42;99494.09;;;-1.88;75.09
82728;BME280;72459;50.110;8.750;2024-01-15T01:36:08;99488.16;;;-1.87;75.74
82728;BME280;72459;50.110;8.750;2024-01-15T01:38:35;99488.38;;;-1.84;76.08
82728;BME280;72459;50.110;8.750;2024-01-15T01:41:01;99489.38;;;-1.82;76.42
82728;BME280;72459;50.110;8.750;2024-01-15T01:43:27;99496.97;;;-1.84;76.22
82728;BME280;72459;50.110;8.750;2024-01-15T01:45:52;99487.91;;;-1.79;76.00
82728;BME280;72459;50.110;8.750;2024-01-15T01:48:19;99481.97;;;-1.78;76.12
82728;BME280;72459;50.110;8.750;2024-01-15T01:50:45;99481.75;;;-1.81;75.80
82728;BME280;72459;50.110;8.750;2024-01-15T01:53:10;99481.84;;;-1.79;77.29
82728;BME280;72459;50.110;8.750;2024-01-15T01:55:36;99476.03;;;-1.77;76.08
82728;BME280;72459;50.110;8.750;2024-01-15T01:58:03;99485.44;;;-1.77;75.60
82728;BME280;72459;50.110;8.750;2024-01-15T02:00:30;99482.78;;;-1.90;76.54
82728;BME280;72459;50.110;8.750;2024-01-15T02:02:57;99477.38;;;-1.82;75.32
82728;BME280;72459;50.110;8.750;2024-01-15T02:05:22;99486.78;;;-1.82;75.35
82728;BME280;72459;50.110;8.750;2024-01-15T02:07:48;99489.59;;;-1.79;76.17
82728;BME280;72459;50.110;8.750;2024-01-15T02:10:14;99491.94;;;-1.82;76.55
82728;BME280;72459;50.110;8.750;2024-01-15T02:12:39;99481.97;;;-1.78;75.32
82728;BME280;72459;50.110;8.750;2024-01-15T02:15:05;99481.59;;;-1.71;74.92
82728;BME280;72459;50.110;8.750;2024-01-15T02:17:30;99475.81;;;-1.80;76.71
82728;BME280;72459;50.110;8.750;2024-01-15T02:19:55;99477.59;;;-1.79;76.23
82728;BME280;72459;50.110;8.750;2024-01-15T02:22:21;99474.25;;;-1.78;75.81
82728;BME280;72459;50.110;8.750;2024-01-15T02:24:46;99463.72;;;-1.81;76.34
82728;BME280;72459;50.110;8.750;2024-01-15T02:27:11;99453.16;;;-1.72;75.88
82728;BME280;72459;50.110;8.750;2024-01-15T02:29:37;99457.31;;;-1.74;76.82
82728;BME280;72459;50.110;8.750;2024-01-15T02:32:06;99451.69;;;-1.69;75.72
82728;BME280;72459;50.110;8.750;2024-01-15T02:34:32;99457.97;;;-1.65;76.26
82728;BME280;72459;50.110;8.750;2024-01-15T02:36:57;99464.78;;;-1.66;75.45
82728;BME280;72459;50.110;8.750;2024-01-15T02:39:23;99444.50;;;-1.61;75.74
82728;BME280;72459;50.110;8.750;2024-01-15T02:41:48;99452.91;;;-1.64;76.09
82728;BME280;72459;50.110;8.750;2024-01-15T02:44:13;99456.75;;;-1.70;75.37
82728;BME280;72459;50.110;8.750;2024-01-15T02:46:40;99460.06;;;-1.60;75.88
82728;BME280;72459;50.110;8.750;2024-01-15T02:49:05;99467.00;;;-1.58;75.47
82728;BME280;72459;50.110;8.750;2024-01-15T02:51:31;99438.56;;;-1.60;75.23
82728;BME280;72459;50.110;8.750;2024-01-15T02:53:56;99456.47;;;-1.62;74.81
82728;BME280;72459;50.110;8.750;2024-01-15T02:56:22;99449.44;;;-1.64;74.83
82728;BME280;72459;50.110;8.750;2024-01-15T02:58:47;99448.88;;;-1.60;75.06
82728;BME280;72459;50.110;8.750;2024-01-15T03:01:12;99445.50;;;-1.59;75.81
82728;BME280;72459;50.110;8.750;2024-01-15T03:03:41;99452.84;;;-1.52;75.87
82728;BME280;72459;50.110;8.750;2024-01-15T03:06:10;99454.75;;;-1.49;76.40
82728;BME280;72459;50.110;8.750;2024-01-15T03:08:35;99459.53;;;-1.42;75.28
82728;BME280;72459;50.110;8.750;2024-01-15T03:11:00;99463.84;;;-1.54;75.76
82728;BME280;72459;50.110;8.750;2024-01-15T03:13:26;99454.91;;;-1.60;75.96
82728;BME280;72459;50.110;8.750;2024-01-15T03:15:51;99464.31;;;-1.60;76.57
82728;BME280;72459;50.110;8.750;2024-01-15T03:18:16;99456.38;;;-1.63;76.91
82728;BME280;72459;50.110;8.750;2024-01-15T03:20:42;99459.09;;;-1.73;77.74
82728;BME280;72459;50.110;8.750;2024-01-15T03:23:07;99465.91;;;-1.62;75.75
82728;BME280;72459;50.110;8.750;2024-01-15T03:25:32;99456.28;;;-1.65;77.75
82728;BME280;72459;50.110;8.750;2024-01-15T03:27:57;99469.94;;;-1.66;76.84
82728;BME280;72459;50.110;8.750;2024-01-15T03:30:23;99461.69;;;-1.73;77.54
82728;BME280;72459;50.110;8.750;2024-01-15T03:32:48;99467.72;;;-1.73;77.17
82728;BME280;72459;50.110;8.750;2024-01-15T03:35:15;99460.78;;;-1.74;76.58
82728;BME280;72459;50.110;8.750;2024-01-15T03:37:40;99466.41;;;-1.79;77.23
82728;BME280;72459;50.110;8.750;2024-01-15T03:40:06;99459.00;;;-1.75;77.62
82728;BME280;72459;50.110;8.750;2024-01-15T03:42:32;99446.22;;;-1.73;77.41
82728;BME280;72459;50.110;8.750;2024-01-15T03:44:57;99449.81;;;-1.71;77.02
82728;BME280;72459;50.110;8.750;2024-01-15T03:47:22;99440.88;;;-1.76;76.73
82728;BME280;72459;50.110;8.750;2024-01-15T03:49:47;99447.91;;;-1.74;76.34
82728;BME280;72459;50.110;8.750;2024-01-15T03:52:13;99445.22;;;-1.75;77.53
82728;BME280;72459;50.110;8.750;2024-01-15T03:54:38;99439.75;;;-1.80;76.29
82728;BME280;72459;50.110;8.750;2024-01-15T03:57:04;99436.97;;;-1.83;77.49
82728;BME280;72459;50.110;8.750;2024-01-15T03:59:31;99443.06;;;-1.69;78.33
82728;BME280;72459;50.110;8.750;2024-01-15T04:01:56;99437.63;;;-1.74;77.56
82728;BME280;72459;50.110;8.750;2024-01-15T04:04:21;99442.66;;;-1.75;77.18
82728;BME280;72459;50.110;8.750;2024-01-15T04:06:47;99436.81;;;-1.73;78.46
82728;BME280;72459;50.110;8.750;2024-01-15T04:09:13;99441.66;;;-1.77;78.93
82728;BME280;72459;50.110;8.750;2024-01-15T04:11:39;99430.69;;;-1.75;77.83
82728;BME280;72459;50.110;8.750;2024-01-15T04:14:04;99437.50;;;-1.75;78.61
82728;BME280;72459;50.110;8.750;2024-01-15T04:16:31;99432.56;;;-1.72;78.76
82728;BME280;72459;50.110;8.750;2024-01-15T04:18:56;99436.63;;;-1.76;78.45
82728;BME280;72459;50.110;8.750;2024-01-15T04:21:22;99425.72;;;-1.72;76.78
82728;BME280;72459;50.110;8.750;2024-01-15T04:23:47;99417.31;;;-1.69;76.51
82728;BME280;72459;50.110;8.750;2024-01-15T04:26:12;99426.94;;;-1.67;76.69
82728;BME280;72459;50.110;8.750;2024-01-15T04:28:38;99428.53;;;-1.69;77.43
82728;BME280;72459;50.110;8.750;2024-01-15T04:31:03;99430.50;;;-1.65;77.46
82728;BME280;72459;50.110;8.750;2024-01-15T04:33:29;99431.16;;;-1.55;76.78
82728;BME280;72459;50.110;8.750;2024-01-15T04:35:56;99415.59;;;-1.57;78.66
82728;BME280;72459;50.110;8.750;2024-01-15T04:38:21;99415.69;;;-1.55;77.58
82728;BME280;72459;50.110;8.750;2024-01-15T04:40:47;99420.69;;;-1.45;76.30
82728;BME280;72459;50.110;8.750;2024-01-15T04:43:12;99420.25;;;-1.51;76.60
82728;BME280;72459;50.110;8.750;2024-01-15T04:45:37;99423.53;;;-1.54;77.03
82728;BME280;72459;50.110;8.750;2024-01-15T04:48:03;99420.75;;;-1.57;77.16
82728;BME280;72459;50.110;8.750;2024-01-15T04:50:28;99419.38;;;-1.52;77.33
82728;BME280;72459;50.110;8.750;2024-01-15T04:52:54;99419.00;;;-1.45;76.52
82728;BME280;72459;50.110;8.750;2024-01-15T04:55:20;99418.09;;;-1.45;75.91
82728;BME280;72459;50.110;8.750;2024-01-15T04:57:45;99419.16;;;-1.55;77.32
82728;BME280;72459;50.110;8.750;2024-01-15T05:00:11;99420.84;;;-1.55;77.45
82728;BME280;72459;50.110;8.750;2024-01-15T05:02:38;99415.78;;;-1.54;77.97
82728;BME280;72459;50.110;8.750;2024-01-15T05:05:03;99407.19;;;-1.54;76.70
82728;BME280;72459;50.110;8.750;2024-01-15T05:07:29;99402.91;;;-1.54;76.62
82728;BME280;72459;50.110;8.750;2024-01-15T05:09:54;99395.28;;;-1.52;77.13
82728;BME280;72459;50.110;8.750;2024-01-15T05:12:20;99399.84;;;-1.48;77.35
82728;BME280;72459;50.110;8.750;2024-01-15T05:14:45;99395.50;;;-1.49;76.62
82728;BME280;72459;50.110;8.750;2024-01-15T05:17:10;99396.50;;;-1.47;77.46
82728;BME280;72459;50.110;8.750;2024-01-15T05:19:36;99393.53;;;-1.40;77.05
82728;BME280;72459;50.110;8.750;2024-01-15T05:22:01;99395.13;;;-1.42;77.16
82728;BME280;72459;50.110;8.750;2024-01-15T05:24:27;99387.19;;;-1.45;77.04
82728;BME280;72459;50.110;8.750;2024-01-15T05:26:53;99384.22;;;-1.38;77.43
82728;BME280;72459;50.110;8.750;2024-01-15T05:29:18;99386.69;;;-1.40;75.76
82728;BME280;72459;50.110;8.750;2024-01-15T05:31:43;99392.34;;;-1.45;77.03
82728;BME280;72459;50.110;8.750;2024-01-15T05:34:09;99389.44;;;-1.50;77.35
82728;BME280;72459;50.110;8.750;2024-01-15T05:36:34;99391.75;;;-1.41;76.34
82728;BME280;72459;50.110;8.750;2024-01-15T05:39:00;99377.19;;;-1.41;77.04
82728;BME280;72459;50.110;8.750;2024-01-15T05:41:25;99385.22;;;-1.36;77.48
82728;BME280;72459;50.110;8.750;2024-01-15T05:43:50;99388.00;;;-1.33;76.59
82728;BME280;72459;50.110;8.750;2024-01-15T05:46:16;99387.97;;;-1.21;76.10
82728;BME280;72459;50.110;8.750;2024-01-15T05:48:41;99381.41;;;-1.30;77.18
82728;BME280;72459;50.110;8.750;2024-01-15T05:51:06;99391.53;;;-1.19;76.51
82728;BME280;72459;50.110;8.750;2024-01-15T05:53:32;99401.25;;;-1.15;75.83
82728;BME280;72459;50.110;8.750;2024-01-15T05:55:57;99398.56;;;-1.30;77.46
82728;BME280;72459;50.110;8.750;2024-01-15T05:58:22;99389.25;;;-1.28;77.37
82728;BME280;72459;50.110;8.750;2024-01-15T06:00:48;99383.09;;;-1.30;77.82
82728;BME280;72459;50.110;8.750;2024-01-15T06:03:15;99382.41;;;-1.27;77.54
82728;BME280;72459;50.110;8.750;2024-01-15T06:05:40;99388.00;;;-1.33;77.87
82728;BME280;72459;50.110;8.750;2024-01-15T06:08:05;99380.03;;;-1.24;76.08
82728;BME280;72459;50.110;8.750;2024-01-15T06:10:31;99381.81;;;-1.23;76.01
82728;BME280;72459;50.110;8.750;2024-01-15T06:12:56;99386.88;;;-1.25;77.23
82728;BME280;72459;50.110;8.750;2024-01-15T06:15:21;99393.13;;;-1.21;76.97
82728;BME280;72459;50.110;8.750;2024-01-15T06:17:47;99392.63;;;-1.16;76.47
82728;BME280;72459;50.110;8.750;2024-01-15T06:20:12;99390.94;;;-1.15;76.22
82728;BME280;72459;50.110;8.750;2024-01-15T06:22:38;99389.88;;;-1.06;76.80
82728;BME280;72459;50.110;8.750;2024-01-15T06:25:07;99392.03;;;-1.12;76.89
82728;BME280;72459;50.110;8.750;2024-01-15T06:27:32;99400.19;;;-1.06;76.29
82728;BME280;72459;50.110;8.750;2024-01-15T06:29:58;99397.19;;;-1.12;77.08
82728;BME280;72459;50.110;8.750;2024-01-15T06:32:23;99401.38;;;-1.01;76.20
82728;BME280;72459;50.110;8.750;2024-01-15T06:34:49;99415.44;;;-1.09;77.29
82728;BME280;72459;50.110;8.750;2024-01-15T06:37:14;99416.94;;;-0.99;76.99
82728;BME280;72459;50.110;8.750;2024-01-15T06:39:40;99418.03;;;-0.96;76.07
82728;BME280;72459;50.110;8.750;2024-01-15T06:42:05;99416.03;;;-1.00;76.98
82728;BME280;72459;50.110;8.750;2024-01-15T06:44:31;99410.41;;;-0.94;76.13
82728;BME280;72459;50.110;8.750;2024-01-15T06:46:56;99404.56;;;-0.91;75.92
82728;BME280;72459;50.110;8.750;2024-01-15T06:49:25;99406.22;;;-0.92;76.56
82728;BME280;72459;50.110;8.750;2024-01-15T06:51:51;99403.53;;;-1.07;78.97
82728;BME280;72459;50.110;8.750;2024-01-15T06:54:16;99400.56;;;-1.00;76.85
82728;BME280;72459;50.110;8.750;2024-01-15T06:56:41;99395.13;;;-1.04;77.89
82728;BME280;72459;50.110;8.750;2024-01-15T06:59:07;99395.50;;;-1.11;78.60
82728;BME280;72459;50.110;8.750;2024-01-15T07:01:34;99397.69;;;-1.04;78.92
82728;BME280;72459;50.110;8.750;2024-01-15T07:03:59;99390.66;;;-1.07;78.06
82728;BME280;72459;50.110;8.750;2024-01-15T07:06:25;99394.22;;;-1.18;78.39
82728;BME280;72459;50.110;8.750;2024-01-15T07:08:50;99386.47;;;-1.18;77.53
82728;BME280;72459;50.110;8.750;2024-01-15T07:11:16;99381.25;;;-1.31;79.10
82728;BME280;72459;50.110;8.750;2024-01-15T07:13:41;99387.78;;;-1.36;79.40
82728;BME280;72459;50.110;8.750;2024-01-15T07:16:06;99377.66;;;-1.21;77.09
82728;BME280;72459;50.110;8.750;2024-01-15T07:18:32;99374.97;;;-1.10;77.19
82728;BME280;72459;50.110;8.750;2024-01-15T07:20:57;99376.28;;;-1.16;77.66
82728;BME280;72459;50.110;8.750;2024-01-15T07:23:24;99374.78;;;-1.13;77.78
82728;BME280;72459;50.110;8.750;2024-01-15T07:25:49;99376.78;;;-1.09;77.32
82728;BME280;72459;50.110;8.750;2024-01-15T07:28:15;99381.13;;;-0.94;78.32
82728;BME280;72459;50.110;8.750;2024-01-15T07:30:41;99376.56;;;-0.99;77.56
82728;BME280;72459;50.110;8.750;2024-01-15T07:33:06;99379.94;;;-1.00;77.72
82728;BME280;72459;50.110;8.750;2024-01-15T07:35:32;99386.41;;;-0.93;76.47
82728;BME280;72459;50.110;8.750;2024-01-15T07:37:57;99376.97;;;-0.92;77.04
82728;BME280;72459;50.110;8.750;2024-01-15T07:40:23;99390.66;;;-0.93;76.80
82728;BME280;72459;50.110;8.750;2024-01-15T07:42:50;99393.13;;;-0.95;76.79
82728;BME280;72459;50.110;8.750;2024-01-15T07:45:15;99402.16;;;-0.88;77.20
82728;BME280;72459;50.110;8.750;2024-01-15T07:47:41;99385.50;;;-0.93;77.58
82728;BME280;72459;50.110;8.750;2024-01-15T07:50:07;99390.97;;;-0.89;77.71
82728;BME280;72459;50.110;8.750;2024-01-15T07:52:32;99389.28;;;-0.75;77.36
82728;BME280;72459;50.110;8.750;2024-01-15T07:54:57;99388.09;;;-0.67;76.26
82728;BME280;72459;50.110;8.750;2024-01-15T07:57:25;99382.22;;;-0.78;77.71
82728;BME280;72459;50.110;8.750;2024-01-15T07:59:50;99386.91;;;-0.72;77.54
82728;BME280;72459;50.110;8.750;2024-01-15T08:02:16;99381.94;;;-0.69;77.61
82728;BME280;72459;50.110;8.750;2024-01-15T08:04:42;99372.22;;;-0.73;77.96
82728;BME280;72459;50.110;8.750;2024-01-15T08:07:07;99365.56;;;-0.70;77.67
82728;BME280;72459;50.110;8.750;2024-01-15T08:09:33;99362.41;;;-0.52;76.77
82728;BME280;72459;50.110;8.750;2024-01-15T08:11:59;99359.34;;;-0.60;77.43
82728;BME280;72459;50.110;8.750;2024-01-15T08:14:24;99359.63;;;-0.55;78.14
82728;BME280;72459;50.110;8.750;2024-01-15T08:16:50;99360.63;;;-0.53;77.58
82728;BME280;72459;50.110;8.750;2024-01-15T08:19:16;99363.09;;;-0.55;78.88
82728;BME280;72459;50.110;8.750;2024-01-15T08:21:41;99374.91;;;-0.58;78.09
82728;BME280;72459;50.110;8.750;2024-01-15T08:24:06;99373.81;;;-0.49;78.45
82728;BME280;72459;50.110;8.750;2024-01-15T08:26:32;99359.78;;;-0.39;76.77
82728;BME280;72459;50.110;8.750;2024-01-15T08:28:58;99361.88;;;-0.47;77.37
82728;BME280;72459;50.110;8.750;2024-01-15T08:31:24;99359.31;;;-0.47;76.79
82728;BME280;72459;50.110;8.750;2024-01-15T08:33:50;99366.63;;;-0.40;76.42
82728;BME280;72459;50.110;8.750;2024-01-15T08:36:15;99364.47;;;-0.47;76.87
82728;BME280;72459;50.110;8.750;2024-01-15T08:38:40;99358.59;;;-0.31;76.65
82728;BME280;72459;50.110;8.750;2024-01-15T08:41:06;99351.34;;;-0.37;76.96
82728;BME280;72459;50.110;8.750;2024-01-15T08:43:33;99352.16;;;-0.38;77.88
82728;BME280;72459;50.110;8.750;2024-01-15T08:45:59;99361.22;;;-0.16;76.18
82728;BME280;72459;50.110;8.750;2024-01-15T08:48:24;99365.41;;;-0.18;77.05
82728;BME280;72459;50.110;8.750;2024-01-15T08:50:52;99363.00;;;-0.15;76.74
82728;BME280;72459;50.110;8.750;2024-01-15T08:53:18;99365.16;;;-0.08;75.92
82728;BME280;72459;50.110;8.750;2024-01-15T08:55:44;99358.22;;;-0.09;76.60
82728;BME280;72459;50.110;8.750;2024-01-15T08:58:10;99362.63;;;-0.21;76.41
82728;BME280;72459;50.110;8.750;2024-01-15T09:00:36;99365.50;;;-0.17;76.26
82728;BME280;72459;50.110;8.750;2024-01-15T09:03:01;99369.16;;;-0.13;75.95
82728;BME280;72459;50.110;8.750;2024-01-15T09:05:27;99367.03;;;-0.34;77.01
82728;BME280;72459;50.110;8.750;2024-01-15T09:07:52;99370.59;;;-0.32;76.90
82728;BME280;72459;50.110;8.750;2024-01-15T09:10:18;99355.81;;;-0.34;76.48
82728;BME280;72459;50.110;8.750;2024-01-15T09:12:44;99361.88;;;-0.34;76.62
82728;BME280;72459;50.110;8.750;2024-01-15T09:15:10;99363.47;;;-0.36;76.51
82728;BME280;72459;50.110;8.750;2024-01-15T09:17:36;99350.25;;;-0.40;75.98
82728;BME280;72459;50.110;8.750;2024-01-15T09:20:01;99350.56;;;-0.36;76.12
82728;BME280;72459;50.110;8.750;2024-01-15T09:22:29;99350.38;;;-0.52;76.37
82728;BME280;72459;50.110;8.750;2024-01-15T09:24:55;99344.34;;;-0.52;76.41
82728;BME280;72459;50.110;8.750;2024-01-15T09:27:20;99354.25;;;-0.45;76.02
82728;BME280;72459;50.110;8.750;2024-01-15T09:29:46;99349.19;;;-0.44;76.06
82728;BME280;72459;50.110;8.750;2024-01-15T09:32:12;99350.44;;;-0.37;75.31
82728;BME280;72459;50.110;8.750;2024-01-15T09:34:38;99344.59;;;-0.35;76.79
82728;BME280;72459;50.110;8.750;2024-01-15T09:37:03;99339.53;;;-0.33;77.01
82728;BME280;72459;50.110;8.750;2024-01-15T09:39:29;99344.97;;;-0.28;75.76
82728;BME280;72459;50.110;8.750;2024-01-15T09:41:56;99345.63;;;-0.18;76.22
82728;BME280;72459;50.110;8.750;2024-01-15T09:44:21;99330.97;;;-0.04;75.23
82728;BME280;72459;50.110;8.750;2024-01-15T09:46:47;99352.06;;;0.02;76.19
82728;BME280;72459;50.110;8.750;2024-01-15T09:49:16;99340.78;;;0.15;75.43
82728;BME280;72459;50.110;8.750;2024-01-15T09:51:42;99340.97;;;0.18;75.74
82728;BME280;72459;50.110;8.750;2024-01-15T09:54:07;99339.00;;;0.28;75.29
82728;BME280;72459;50.110;8.750;2024-01-15T09:56:33;99332.44;;;0.48;75.32
82728;BME280;72459;50.110;8.750;2024-01-15T09:59:00;99337.72;;;0.64;75.27
82728;BME280;72459;50.110;8.750;2024-01-15T10:01:25;99329.25;;;0.97;75.10
82728;BME280;72459;50.110;8.750;2024-01-15T10:03:51;99323.97;;;1.10;74.02
82728;BME280;72459;50.110;8.750;2024-01-15T10:06:18;99317.44;;;1.16;74.16
82728;BME280;72459;50.110;8.750;2024-01-15T10:08:47;99307.34;;;1.36;74.05
82728;BME280;72459;50.110;8.750;2024-01-15T10:11:13;99308.78;;;1.31;72.56
82728;BME280;72459;50.110;8.750;2024-01-15T10:13:39;99303.50;;;1.60;74.44
82728;BME280;72459;50.110;8.750;2024-01-15T10:16:05;99311.94;;;1.72;73.69
82728;BME280;72459;50.110;8.750;2024-01-15T10:18:30;99313.38;;;1.83;73.33
82728;BME280;72459;50.110;8.750;2024-01-15T10:20:56;99309.03;;;1.82;72.52
82728;BME280;72459;50.110;8.750;2024-01-15T10:23:24;99313.72;;;1.89;73.74
82728;BME280;72459;50.110;8.750;2024-01-15T10:25:49;99305.47;;;2.13;73.48
82728;BME280;72459;50.110;8.750;2024-01-15T10:28:18;99301.16;;;2.30;74.08
82728;BME280;72459;50.110;8.750;2024-01-15T10:30:44;99298.41;;;2.43;73.00
82728;BME280;72459;50.110;8.750;2024-01-15T10:33:10;99312.44;;;2.30;71.44
82728;BME280;72459;50.110;8.750;2024-01-15T10:35:37;99313.75;;;2.22;73.88
82728;BME280;72459;50.110;8.750;2024-01-15T10:38:03;99311.66;;;1.99;71.91
82728;BME280;72459;50.110;8.750;2024-01-15T10:40:30;99295.66;;;1.91;72.25
82728;BME280;72459;50.110;8.750;2024-01-15T10:42:56;99294.63;;;2.04;73.61
82728;BME280;72459;50.110;8.750;2024-01-15T10:45:22;99289.03;;;2.12;73.97
82728;BME280;72459;50.110;8.750;2024-01-15T10:47:48;99290.31;;;1.88;71.91
82728;BME280;72459;50.110;8.750;2024-01-15T10:50:14;99279.34;;;2.08;72.28
82728;BME280;72459;50.110;8.750;2024-01-15T10:52:40;99282.09;;;2.11;71.83
82728;BME280;72459;50.110;8.750;2024-01-15T10:55:09;99287.09;;;1.92;71.94
82728;BME280;72459;50.110;8.750;2024-01-15T10:57:36;99284.84;;;1.98;73.03
82728;BME280;72459;50.110;8.750;2024-01-15T11:00:02;99281.34;;;1.65;72.18
82728;BME280;72459;50.110;8.750;2024-01-15T11:02:32;99274.06;;;1.90;74.46
82728;BME280;72459;50.110;8.750;2024-01-15T11:04:59;99276.56;;;1.89;73.47
82728;BME280;72459;50.110;8.750;2024-01-15T11:07:25;99264.44;;;2.04;73.50
82728;BME280;72459;50.110;8.750;2024-01-15T11:09:51;99261.44;;;1.97;73.62
82728;BME280;72459;50.110;8.750;2024-01-15T11:12:16;99246.88;;;1.99;73.76
82728;BME280;72459;50.110;8.750;2024-01-15T11:14:47;99259.50;;;2.09;73.42
82728;BME280;72459;50.110;8.750;2024-01-15T11:17:14;99253.50;;;2.10;71.88
82728;BME280;72459;50.110;8.750;2024-01-15T11:19:43;99257.28;;;2.16;71.89
82728;BME280;72459;50.110;8.750;2024-01-15T11:22:09;99260.44;;;2.27;72.47
82728;BME280;72459;50.110;8.750;2024-01-15T11:27:04;99247.75;;;2.15;73.48
82728;BME280;72459;50.110;8.750;2024-01-15T11:29:31;99247.91;;;2.02;71.69
82728;BME280;72459;50.110;8.750;2024-01-15T11:31:59;99245.66;;;2.08;72.39
82728;BME280;72459;50.110;8.750;2024-01-15T11:34:57;99239.66;;;2.09;71.48
82728;BME280;72459;50.110;8.750;2024-01-15T11:37:25;99245.81;;;2.11;71.90
82728;BME280;72459;50.110;8.750;2024-01-15T11:40:03;99242.91;;;2.05;71.95
82728;BME280;72459;50.110;8.750;2024-01-15T11:42:36;99234.28;;;2.22;71.27
82728;BME280;72459;50.110;8.750;2024-01-15T11:45:02;99228.13;;;2.20;71.07
82728;BME280;72459;50.110;8.750;2024-01-15T11:48:13;99240.63;;;2.45;72.89
82728;BME280;72459;50.110;8.750;2024-01-15T11:50:41;99229.00;;;2.55;73.10
82728;BME280;72459;50.110;8.750;2024-01-15T11:53:15;99243.22;;;2.45;70.75
82728;BME280;72459;50.110;8.750;2024-01-15T11:55:44;99240.34;;;2.23;71.90
82728;BME280;72459;50.110;8.750;2024-01-15T11:58:14;99246.31;;;2.38;72.82
82728;BME280;72459;50.110;8.750;2024-01-15T12:00:40;99255.19;;;2.09;71.78
82728;BME280;72459;50.110;8.750;2024-01-15T12:03:07;99257.28;;;2.16;72.69
82728;BME280;72459;50.110;8.750;2024-01-15T12:05:32;99251.47;;;2.04;71.19
82728;BME280;72459;50.110;8.750;2024-01-15T12:07:57;99255.78;;;2.04;73.14
82728;BME280;72459;50.110;8.750;2024-01-15T12:10:23;99248.97;;;2.06;73.69
82728;BME280;72459;50.110;8.750;2024-01-15T12:13:11;99244.00;;;1.94;71.70
82728;BME280;72459;50.110;8.750;2024-01-15T12:15:37;99249.22;;;2.10;74.15
82728;BME280;72459;50.110;8.750;2024-01-15T12:18:07;99247.97;;;2.20;73.33
82728;BME280;72459;50.110;8.750;2024-01-15T12:20:33;99248.78;;;2.19;72.97
82728;BME280;72459;50.110;8.750;2024-01-15T12:23:00;99252.38;;;2.39;73.32
82728;BME280;72459;50.110;8.750;2024-01-15T12:25:26;99242.94;;;2.57;73.60
82728;BME280;72459;50.110;8.750;2024-01-15T12:27:53;99243.50;;;2.68;72.85
82728;BME280;72459;50.110;8.750;2024-01-15T12:30:18;99253.72;;;2.82;73.80
82728;BME280;72459;50.110;8.750;2024-01-15T12:32:45;99244.97;;;2.80;73.33
82728;BME280;72459;50.110;8.750;2024-01-15T12:35:13;99242.44;;;2.64;72.02
82728;BME280;72459;50.110;8.750;2024-01-15T12:37:42;99236.38;;;2.81;72.65
82728;BME280;72459;50.110;8.750;2024-01-15T12:40:09;99239.84;;;2.64;70.88
82728;BME280;72459;50.110;8.750;2024-01-15T12:42:41;99240.22;;;2.90;72.84
82728;BME280;72459;50.110;8.750;2024-01-15T12:45:08;99244.09;;;2.98;73.52
82728;BME280;72459;50.110;8.750;2024-01-15T12:47:34;99247.41;;;2.95;73.39
82728;BME280;72459;50.110;8.750;2024-01-15T12:49:59;99246.38;;;2.92;73.52
82728;BME280;72459;50.110;8.750;2024-01-15T12:52:29;99244.16;;;2.99;73.26
82728;BME280;72459;50.110;8.750;2024-01-15T12:54:54;99236.59;;;3.04;73.76
82728;BME280;72459;50.110;8.750;2024-01-15T12:57:20;99241.63;;;3.01;73.55
82728;BME280;72459;50.110;8.750;2024-01-15T12:59:46;99236.97;;;2.94;72.20